sensor_id;sensor_type;location;lat;lon;timestamp;P1;durP1;ratioP1;P2;durP2;ratioP2
13425;SDS011;6785;57.918;12.530;2023-04-03T00:00:27;2.60;;;1.80;;
13425;SDS011;6785;57.918;12.530;2023-04-03T00:02:55;3.80;;;1.80;;
13425;SDS011;6785;57.918;12.530;2023-04-03T00:05:21;6.93;;;1.90;;
13425;SDS011;6785;57.918;12.530;2023-04-03T00:07:49;3.90;;;1.90;;
13425;SDS011;6785;57.918;12.530;2023-04-03T00:10:16;1.83;;;1.73;;
13425;SDS011;6785;57.918;12.530;2023-04-03T00:12:43;4.73;;;1.90;;
13425;SDS011;6785;57.918;12.530;2023-04-03T00:15:10;2.53;;;1.90;;
13425;SDS011;6785;57.918;12.530;2023-04-03T00:17:37;2.57;;;1.90;;
13425;SDS011;6785;57.918;12.530;2023-04-03T00:20:04;4.30;;;1.70;;
13425;SDS011;6785;57.918;12.530;2023-04-03T00:22:31;4.50;;;2.00;;
13425;SDS011;6785;57.918;12.530;2023-04-03T00:24:59;3.53;;;1.93;;
13425;SDS011;6785;57.918;12.530;2023-04-03T00:27:26;2.17;;;1.83;;
13425;SDS011;6785;57.918;12.530;2023-04-03T00:29:53;3.67;;;1.50;;
13425;SDS011;6785;57.918;12.530;2023-04-03T00:32:19;3.43;;;1.77;;
13425;SDS011;6785;57.918;12.530;2023-04-03T00:34:46;2.60;;;2.03;;
13425;SDS011;6785;57.918;12.530;2023-04-03T00:37:13;2.10;;;1.60;;
13425;SDS011;6785;57.918;12.530;2023-04-03T00:39:39;2.87;;;1.40;;
13425;SDS011;6785;57.918;12.530;2023-04-03T00:42:08;2.87;;;1.80;;
13425;SDS011;6785;57.918;12.530;2023-04-03T00:47:39;2.97;;;1.63;;
13425;SDS011;6785;57.918;12.530;2023-04-03T00:50:07;3.30;;;1.40;;
13425;SDS011;6785;57.918;12.530;2023-04-03T00:52:35;3.40;;;2.07;;
13425;SDS011;6785;57.918;12.530;2023-04-03T00:55:05;2.70;;;1.70;;
13425;SDS011;6785;57.918;12.530;2023-04-03T00:57:36;3.27;;;1.60;;
13425;SDS011;6785;57.918;12.530;2023-04-03T01:00:05;3.37;;;1.67;;
13425;SDS011;6785;57.918;12.530;2023-04-03T01:02:35;5.07;;;2.43;;
13425;SDS011;6785;57.918;12.530;2023-04-03T01:05:02;4.60;;;1.90;;
13425;SDS011;6785;57.918;12.530;2023-04-03T01:07:30;2.00;;;1.80;;
13425;SDS011;6785;57.918;12.530;2023-04-03T01:09:59;2.70;;;1.60;;
13425;SDS011;6785;57.918;12.530;2023-04-03T01:12:29;4.13;;;1.53;;
13425;SDS011;6785;57.918;12.530;2023-04-03T01:15:00;2.70;;;1.80;;
13425;SDS011;6785;57.918;12.530;2023-04-03T01:17:31;2.10;;;1.73;;
13425;SDS011;6785;57.918;12.530;2023-04-03T01:20:13;3.30;;;1.60;;
13425;SDS011;6785;57.918;12.530;2023-04-03T01:23:17;3.27;;;1.37;;
13425;SDS011;6785;57.918;12.530;2023-04-03T01:25:51;5.73;;;1.67;;
13425;SDS011;6785;57.918;12.530;2023-04-03T01:28:21;2.07;;;1.53;;
13425;SDS011;6785;57.918;12.530;2023-04-03T01:30:53;3.50;;;1.33;;
13425;SDS011;6785;57.918;12.530;2023-04-03T01:33:28;3.87;;;1.70;;
13425;SDS011;6785;57.918;12.530;2023-04-03T01:35:55;2.37;;;1.43;;
13425;SDS011;6785;57.918;12.530;2023-04-03T01:38:21;1.90;;;1.50;;
13425;SDS011;6785;57.918;12.530;2023-04-03T01:40:48;1.60;;;1.50;;
13425;SDS011;6785;57.918;12.530;2023-04-03T01:43:15;8.50;;;1.93;;
13425;SDS011;6785;57.918;12.530;2023-04-03T01:45:42;3.20;;;1.67;;
13425;SDS011;6785;57.918;12.530;2023-04-03T01:48:09;3.20;;;2.10;;
13425;SDS011;6785;57.918;12.530;2023-04-03T01:50:37;3.13;;;1.73;;
13425;SDS011;6785;57.918;12.530;2023-04-03T01:53:04;3.53;;;1.80;;
13425;SDS011;6785;57.918;12.530;2023-04-03T01:55:30;2.10;;;1.63;;
13425;SDS011;6785;57.918;12.530;2023-04-03T01:57:57;3.57;;;1.90;;
13425;SDS011;6785;57.918;12.530;2023-04-03T02:00:24;2.40;;;1.80;;
13425;SDS011;6785;57.918;12.530;2023-04-03T02:02:51;2.87;;;1.70;;
13425;SDS011;6785;57.918;12.530;2023-04-03T02:05:18;5.13;;;1.73;;
13425;SDS011;6785;57.918;12.530;2023-04-03T02:07:46;6.07;;;1.80;;
13425;SDS011;6785;57.918;12.530;2023-04-03T02:10:13;5.57;;;2.53;;
13425;SDS011;6785;57.918;12.530;2023-04-03T02:12:40;2.23;;;1.63;;
13425;SDS011;6785;57.918;12.530;2023-04-03T02:15:07;2.13;;;1.70;;
13425;SDS011;6785;57.918;12.530;2023-04-03T02:17:34;3.33;;;1.80;;
13425;SDS011;6785;57.918;12.530;2023-04-03T02:20:01;3.33;;;1.60;;
13425;SDS011;6785;57.918;12.530;2023-04-03T02:22:29;4.00;;;1.43;;
13425;SDS011;6785;57.918;12.530;2023-04-03T02:24:57;1.63;;;1.47;;
13425;SDS011;6785;57.918;12.530;2023-04-03T02:27:24;5.40;;;1.57;;
13425;SDS011;6785;57.918;12.530;2023-04-03T02:29:51;3.23;;;1.77;;
13425;SDS011;6785;57.918;12.530;2023-04-03T02:32:18;5.13;;;2.80;;
13425;SDS011;6785;57.918;12.530;2023-04-03T02:34:44;2.80;;;1.80;;
13425;SDS011;6785;57.918;12.530;2023-04-03T02:37:11;5.37;;;2.10;;
13425;SDS011;6785;57.918;12.530;2023-04-03T02:39:38;1.97;;;1.53;;
13425;SDS011;6785;57.918;12.530;2023-04-03T02:42:06;1.77;;;1.60;;
13425;SDS011;6785;57.918;12.530;2023-04-03T02:44:33;2.90;;;1.73;;
13425;SDS011;6785;57.918;12.530;2023-04-03T02:47:00;4.50;;;2.27;;
13425;SDS011;6785;57.918;12.530;2023-04-03T02:49:27;2.63;;;1.50;;
13425;SDS011;6785;57.918;12.530;2023-04-03T02:51:54;6.80;;;1.90;;
13425;SDS011;6785;57.918;12.530;2023-04-03T02:54:21;3.17;;;1.70;;
13425;SDS011;6785;57.918;12.530;2023-04-03T02:56:49;2.07;;;1.40;;
13425;SDS011;6785;57.918;12.530;2023-04-03T02:59:18;2.57;;;1.80;;
13425;SDS011;6785;57.918;12.530;2023-04-03T03:01:45;2.53;;;1.80;;
13425;SDS011;6785;57.918;12.530;2023-04-03T03:04:12;4.50;;;1.73;;
13425;SDS011;6785;57.918;12.530;2023-04-03T03:06:38;3.40;;;1.70;;
13425;SDS011;6785;57.918;12.530;2023-04-03T03:09:06;4.33;;;2.47;;
13425;SDS011;6785;57.918;12.530;2023-04-03T03:11:33;1.67;;;1.50;;
13425;SDS011;6785;57.918;12.530;2023-04-03T03:13:59;5.03;;;1.70;;
13425;SDS011;6785;57.918;12.530;2023-04-03T03:16:28;1.97;;;1.50;;
13425;SDS011;6785;57.918;12.530;2023-04-03T03:18:54;3.07;;;1.60;;
13425;SDS011;6785;57.918;12.530;2023-04-03T03:21:21;4.50;;;1.83;;
13425;SDS011;6785;57.918;12.530;2023-04-03T03:23:48;2.20;;;1.73;;
13425;SDS011;6785;57.918;12.530;2023-04-03T03:26:15;1.83;;;1.43;;
13425;SDS011;6785;57.918;12.530;2023-04-03T03:28:41;4.50;;;1.50;;
13425;SDS011;6785;57.918;12.530;2023-04-03T03:31:08;7.07;;;1.80;;
13425;SDS011;6785;57.918;12.530;2023-04-03T03:33:37;1.73;;;1.50;;
13425;SDS011;6785;57.918;12.530;2023-04-03T03:36:04;1.90;;;1.27;;
13425;SDS011;6785;57.918;12.530;2023-04-03T03:38:31;3.30;;;1.77;;
13425;SDS011;6785;57.918;12.530;2023-04-03T03:40:58;3.00;;;1.57;;
13425;SDS011;6785;57.918;12.530;2023-04-03T03:43:25;4.17;;;1.70;;
13425;SDS011;6785;57.918;12.530;2023-04-03T03:45:52;4.17;;;1.67;;
13425;SDS011;6785;57.918;12.530;2023-04-03T03:48:20;4.07;;;2.13;;
13425;SDS011;6785;57.918;12.530;2023-04-03T03:50:49;1.90;;;1.50;;
13425;SDS011;6785;57.918;12.530;2023-04-03T03:53:16;3.67;;;1.77;;
13425;SDS011;6785;57.918;12.530;2023-04-03T03:55:44;2.63;;;1.70;;
13425;SDS011;6785;57.918;12.530;2023-04-03T03:58:10;1.70;;;1.60;;
13425;SDS011;6785;57.918;12.530;2023-04-03T04:00:37;2.53;;;1.70;;
13425;SDS011;6785;57.918;12.530;2023-04-03T04:03:04;2.93;;;1.90;;
13425;SDS011;6785;57.918;12.530;2023-04-03T04:05:31;4.37;;;1.50;;
13425;SDS011;6785;57.918;12.530;2023-04-03T04:07:59;6.07;;;1.63;;
13425;SDS011;6785;57.918;12.530;2023-04-03T04:10:26;6.70;;;2.27;;
13425;SDS011;6785;57.918;12.530;2023-04-03T04:12:52;5.07;;;1.87;;
13425;SDS011;6785;57.918;12.530;2023-04-03T04:15:19;6.10;;;2.00;;
13425;SDS011;6785;57.918;12.530;2023-04-03T04:17:47;3.77;;;1.93;;
13425;SDS011;6785;57.918;12.530;2023-04-03T04:20:14;6.87;;;2.37;;
13425;SDS011;6785;57.918;12.530;2023-04-03T04:22:41;2.33;;;1.80;;
13425;SDS011;6785;57.918;12.530;2023-04-03T04:25:09;2.13;;;1.80;;
13425;SDS011;6785;57.918;12.530;2023-04-03T04:27:36;5.23;;;1.80;;
13425;SDS011;6785;57.918;12.530;2023-04-03T04:30:03;5.53;;;1.73;;
13425;SDS011;6785;57.918;12.530;2023-04-03T04:32:31;4.47;;;2.33;;
13425;SDS011;6785;57.918;12.530;2023-04-03T04:34:57;6.23;;;1.60;;
13425;SDS011;6785;57.918;12.530;2023-04-03T04:37:24;3.07;;;1.50;;
13425;SDS011;6785;57.918;12.530;2023-04-03T04:39:51;2.57;;;1.70;;
13425;SDS011;6785;57.918;12.530;2023-04-03T04:42:19;1.40;;;1.30;;
13425;SDS011;6785;57.918;12.530;2023-04-03T04:44:46;3.40;;;1.77;;
13425;SDS011;6785;57.918;12.530;2023-04-03T04:47:12;3.57;;;1.97;;
13425;SDS011;6785;57.918;12.530;2023-04-03T04:49:39;4.53;;;1.93;;
13425;SDS011;6785;57.918;12.530;2023-04-03T04:52:06;2.37;;;1.90;;
13425;SDS011;6785;57.918;12.530;2023-04-03T04:54:33;8.70;;;2.00;;
13425;SDS011;6785;57.918;12.530;2023-04-03T04:56:59;3.70;;;2.23;;
13425;SDS011;6785;57.918;12.530;2023-04-03T04:59:27;3.13;;;1.90;;
13425;SDS011;6785;57.918;12.530;2023-04-03T05:01:54;3.10;;;1.60;;
13425;SDS011;6785;57.918;12.530;2023-04-03T05:04:21;3.53;;;1.90;;
13425;SDS011;6785;57.918;12.530;2023-04-03T05:06:47;3.97;;;1.80;;
13425;SDS011;6785;57.918;12.530;2023-04-03T05:09:14;6.73;;;1.80;;
13425;SDS011;6785;57.918;12.530;2023-04-03T05:11:41;5.67;;;2.10;;
13425;SDS011;6785;57.918;12.530;2023-04-03T05:14:08;6.27;;;1.73;;
13425;SDS011;6785;57.918;12.530;2023-04-03T05:16:36;1.60;;;1.43;;
13425;SDS011;6785;57.918;12.530;2023-04-03T05:19:03;6.07;;;1.87;;
13425;SDS011;6785;57.918;12.530;2023-04-03T05:21:30;6.40;;;1.80;;
13425;SDS011;6785;57.918;12.530;2023-04-03T05:23:57;7.13;;;1.97;;
13425;SDS011;6785;57.918;12.530;2023-04-03T05:26:27;3.80;;;1.60;;
13425;SDS011;6785;57.918;12.530;2023-04-03T05:28:54;2.43;;;1.70;;
13425;SDS011;6785;57.918;12.530;2023-04-03T05:31:22;2.00;;;1.60;;
13425;SDS011;6785;57.918;12.530;2023-04-03T05:33:50;4.60;;;1.90;;
13425;SDS011;6785;57.918;12.530;2023-04-03T05:36:16;4.20;;;1.83;;
13425;SDS011;6785;57.918;12.530;2023-04-03T05:38:43;1.77;;;1.50;;
13425;SDS011;6785;57.918;12.530;2023-04-03T05:41:10;1.77;;;1.60;;
13425;SDS011;6785;57.918;12.530;2023-04-03T05:43:37;1.80;;;1.60;;
13425;SDS011;6785;57.918;12.530;2023-04-03T05:46:04;3.37;;;1.67;;
13425;SDS011;6785;57.918;12.530;2023-04-03T05:48:34;2.23;;;1.80;;
13425;SDS011;6785;57.918;12.530;2023-04-03T05:51:03;5.67;;;1.60;;
13425;SDS011;6785;57.918;12.530;2023-04-03T05:53:31;4.63;;;1.90;;
13425;SDS011;6785;57.918;12.530;2023-04-03T05:56:01;1.60;;;1.50;;
13425;SDS011;6785;57.918;12.530;2023-04-03T05:58:28;5.20;;;2.10;;
13425;SDS011;6785;57.918;12.530;2023-04-03T06:00:55;2.43;;;1.60;;
13425;SDS011;6785;57.918;12.530;2023-04-03T06:03:22;6.10;;;1.57;;
13425;SDS011;6785;57.918;12.530;2023-04-03T06:05:49;4.97;;;1.40;;
13425;SDS011;6785;57.918;12.530;2023-04-03T06:08:17;4.60;;;1.60;;
13425;SDS011;6785;57.918;12.530;2023-04-03T06:10:43;5.53;;;2.10;;
13425;SDS011;6785;57.918;12.530;2023-04-03T06:13:10;2.87;;;1.80;;
13425;SDS011;6785;57.918;12.530;2023-04-03T06:15:37;5.90;;;1.67;;
13425;SDS011;6785;57.918;12.530;2023-04-03T06:18:04;3.47;;;2.20;;
13425;SDS011;6785;57.918;12.530;2023-04-03T06:20:31;5.07;;;1.93;;
13425;SDS011;6785;57.918;12.530;2023-04-03T06:22:58;4.13;;;1.90;;
13425;SDS011;6785;57.918;12.530;2023-04-03T06:25:26;2.87;;;1.67;;
13425;SDS011;6785;57.918;12.530;2023-04-03T06:27:53;4.90;;;2.17;;
13425;SDS011;6785;57.918;12.530;2023-04-03T06:30:20;4.30;;;2.43;;
13425;SDS011;6785;57.918;12.530;2023-04-03T06:32:47;2.73;;;1.90;;
13425;SDS011;6785;57.918;12.530;2023-04-03T06:35:14;3.20;;;1.80;;
13425;SDS011;6785;57.918;12.530;2023-04-03T06:37:41;4.70;;;1.70;;
13425;SDS011;6785;57.918;12.530;2023-04-03T06:40:09;8.00;;;2.07;;
13425;SDS011;6785;57.918;12.530;2023-04-03T06:42:45;5.50;;;1.80;;
13425;SDS011;6785;57.918;12.530;2023-04-03T06:45:12;11.60;;;2.30;;
13425;SDS011;6785;57.918;12.530;2023-04-03T06:47:38;4.60;;;1.90;;
13425;SDS011;6785;57.918;12.530;2023-04-03T06:50:05;5.10;;;2.13;;
13425;SDS011;6785;57.918;12.530;2023-04-03T06:52:34;8.80;;;2.40;;
13425;SDS011;6785;57.918;12.530;2023-04-03T06:55:00;4.67;;;1.67;;
13425;SDS011;6785;57.918;12.530;2023-04-03T06:57:27;7.90;;;1.90;;
13425;SDS011;6785;57.918;12.530;2023-04-03T06:59:55;1.90;;;1.50;;
13425;SDS011;6785;57.918;12.530;2023-04-03T07:02:22;5.13;;;1.60;;
13425;SDS011;6785;57.918;12.530;2023-04-03T07:04:49;3.40;;;1.70;;
13425;SDS011;6785;57.918;12.530;2023-04-03T07:07:16;3.60;;;1.47;;
13425;SDS011;6785;57.918;12.530;2023-04-03T07:09:43;3.80;;;1.77;;
13425;SDS011;6785;57.918;12.530;2023-04-03T07:12:11;1.73;;;1.40;;
13425;SDS011;6785;57.918;12.530;2023-04-03T07:14:38;4.57;;;2.00;;
13425;SDS011;6785;57.918;12.530;2023-04-03T07:17:06;7.33;;;1.80;;
13425;SDS011;6785;57.918;12.530;2023-04-03T07:19:33;4.73;;;2.07;;
13425;SDS011;6785;57.918;12.530;2023-04-03T07:22:00;6.30;;;2.10;;
13425;SDS011;6785;57.918;12.530;2023-04-03T07:24:27;6.00;;;1.83;;
13425;SDS011;6785;57.918;12.530;2023-04-03T07:26:53;3.73;;;1.60;;
13425;SDS011;6785;57.918;12.530;2023-04-03T07:29:20;1.90;;;1.40;;
13425;SDS011;6785;57.918;12.530;2023-04-03T07:31:49;3.73;;;1.60;;
13425;SDS011;6785;57.918;12.530;2023-04-03T07:34:17;3.53;;;1.40;;
13425;SDS011;6785;57.918;12.530;2023-04-03T07:36:44;3.73;;;1.30;;
13425;SDS011;6785;57.918;12.530;2023-04-03T07:39:11;1.30;;;1.20;;
13425;SDS011;6785;57.918;12.530;2023-04-03T07:41:37;4.57;;;1.40;;
13425;SDS011;6785;57.918;12.530;2023-04-03T07:44:04;3.90;;;1.63;;
13425;SDS011;6785;57.918;12.530;2023-04-03T07:46:34;2.30;;;1.70;;
13425;SDS011;6785;57.918;12.530;2023-04-03T07:49:01;6.17;;;2.17;;
13425;SDS011;6785;57.918;12.530;2023-04-03T07:51:29;6.00;;;1.53;;
13425;SDS011;6785;57.918;12.530;2023-04-03T07:53:56;11.90;;;1.90;;
13425;SDS011;6785;57.918;12.530;2023-04-03T07:56:23;2.10;;;1.37;;
13425;SDS011;6785;57.918;12.530;2023-04-03T07:58:51;7.80;;;1.70;;
13425;SDS011;6785;57.918;12.530;2023-04-03T08:01:18;2.83;;;1.60;;
13425;SDS011;6785;57.918;12.530;2023-04-03T08:03:45;4.13;;;2.10;;
13425;SDS011;6785;57.918;12.530;2023-04-03T08:06:12;3.07;;;1.50;;
13425;SDS011;6785;57.918;12.530;2023-04-03T08:08:41;3.53;;;1.40;;
13425;SDS011;6785;57.918;12.530;2023-04-03T08:11:09;6.63;;;1.57;;
13425;SDS011;6785;57.918;12.530;2023-04-03T08:13:36;4.87;;;1.70;;
13425;SDS011;6785;57.918;12.530;2023-04-03T08:16:10;4.30;;;1.57;;
13425;SDS011;6785;57.918;12.530;2023-04-03T08:18:39;5.97;;;1.43;;
13425;SDS011;6785;57.918;12.530;2023-04-03T08:21:06;3.50;;;1.40;;
13425;SDS011;6785;57.918;12.530;2023-04-03T08:23:33;1.33;;;1.23;;
13425;SDS011;6785;57.918;12.530;2023-04-03T08:26:06;3.70;;;1.10;;
13425;SDS011;6785;57.918;12.530;2023-04-03T08:28:33;4.60;;;1.23;;
13425;SDS011;6785;57.918;12.530;2023-04-03T08:31:02;1.53;;;1.17;;
13425;SDS011;6785;57.918;12.530;2023-04-03T08:33:31;2.40;;;1.40;;
13425;SDS011;6785;57.918;12.530;2023-04-03T08:35:57;4.83;;;1.57;;
13425;SDS011;6785;57.918;12.530;2023-04-03T08:38:24;1.13;;;1.07;;
13425;SDS011;6785;57.918;12.530;2023-04-03T08:40:59;3.20;;;1.40;;
13425;SDS011;6785;57.918;12.530;2023-04-03T08:43:31;3.30;;;1.37;;
13425;SDS011;6785;57.918;12.530;2023-04-03T08:46:04;2.87;;;1.63;;
13425;SDS011;6785;57.918;12.530;2023-04-03T08:48:33;6.87;;;1.30;;
13425;SDS011;6785;57.918;12.530;2023-04-03T08:51:03;3.60;;;1.33;;
13425;SDS011;6785;57.918;12.530;2023-04-03T08:53:36;4.33;;;1.20;;
13425;SDS011;6785;57.918;12.530;2023-04-03T08:56:08;2.87;;;1.20;;
13425;SDS011;6785;57.918;12.530;2023-04-03T08:58:40;3.97;;;1.10;;
13425;SDS011;6785;57.918;12.530;2023-04-03T09:01:14;3.03;;;1.43;;
13425;SDS011;6785;57.918;12.530;2023-04-03T09:03:45;3.20;;;1.07;;
13425;SDS011;6785;57.918;12.530;2023-04-03T09:06:13;3.53;;;1.20;;
13425;SDS011;6785;57.918;12.530;2023-04-03T09:08:43;1.53;;;1.00;;
13425;SDS011;6785;57.918;12.530;2023-04-03T09:11:14;3.30;;;1.10;;
13425;SDS011;6785;57.918;12.530;2023-04-03T09:13:49;3.57;;;1.30;;
13425;SDS011;6785;57.918;12.530;2023-04-03T09:16:23;1.70;;;1.13;;
13425;SDS011;6785;57.918;12.530;2023-04-03T09:19:00;1.80;;;1.10;;
13425;SDS011;6785;57.918;12.530;2023-04-03T09:21:34;3.23;;;1.00;;
13425;SDS011;6785;57.918;12.530;2023-04-03T09:24:05;4.03;;;0.97;;
13425;SDS011;6785;57.918;12.530;2023-04-03T09:26:34;2.03;;;1.20;;
13425;SDS011;6785;57.918;12.530;2023-04-03T09:29:06;4.20;;;1.30;;
13425;SDS011;6785;57.918;12.530;2023-04-03T09:31:36;1.60;;;1.07;;
13425;SDS011;6785;57.918;12.530;2023-04-03T09:34:06;3.23;;;1.27;;
13425;SDS011;6785;57.918;12.530;2023-04-03T09:36:40;3.07;;;0.97;;
13425;SDS011;6785;57.918;12.530;2023-04-03T09:39:09;2.33;;;1.00;;
13425;SDS011;6785;57.918;12.530;2023-04-03T09:41:39;1.33;;;1.10;;
13425;SDS011;6785;57.918;12.530;2023-04-03T09:44:19;2.33;;;1.30;;
13425;SDS011;6785;57.918;12.530;2023-04-03T09:46:47;4.80;;;1.50;;
13425;SDS011;6785;57.918;12.530;2023-04-03T09:49:14;1.73;;;1.10;;
13425;SDS011;6785;57.918;12.530;2023-04-03T09:51:41;5.40;;;1.37;;
13425;SDS011;6785;57.918;12.530;2023-04-03T09:54:25;2.50;;;1.30;;
13425;SDS011;6785;57.918;12.530;2023-04-03T09:57:04;2.80;;;1.20;;
13425;SDS011;6785;57.918;12.530;2023-04-03T09:59:36;1.20;;;0.90;;
13425;SDS011;6785;57.918;12.530;2023-04-03T10:02:18;1.47;;;0.83;;
13425;SDS011;6785;57.918;12.530;2023-04-03T10:04:54;1.00;;;0.90;;
13425;SDS011;6785;57.918;12.530;2023-04-03T10:07:29;1.10;;;1.00;;
13425;SDS011;6785;57.918;12.530;2023-04-03T10:09:58;3.87;;;1.33;;
13425;SDS011;6785;57.918;12.530;2023-04-03T10:12:26;2.53;;;1.00;;
13425;SDS011;6785;57.918;12.530;2023-04-03T10:14:56;1.53;;;0.97;;
13425;SDS011;6785;57.918;12.530;2023-04-03T10:17:26;1.63;;;0.90;;
13425;SDS011;6785;57.918;12.530;2023-04-03T10:20:04;2.60;;;1.00;;
13425;SDS011;6785;57.918;12.530;2023-04-03T10:22:37;4.43;;;1.00;;
13425;SDS011;6785;57.918;12.530;2023-04-03T10:25:12;3.23;;;0.90;;
13425;SDS011;6785;57.918;12.530;2023-04-03T10:27:48;1.10;;;1.07;;
13425;SDS011;6785;57.918;12.530;2023-04-03T10:30:24;3.07;;;1.10;;
13425;SDS011;6785;57.918;12.530;2023-04-03T10:33:03;4.10;;;1.17;;
13425;SDS011;6785;57.918;12.530;2023-04-03T10:35:44;3.80;;;1.27;;
13425;SDS011;6785;57.918;12.530;2023-04-03T10:38:22;2.33;;;1.10;;
13425;SDS011;6785;57.918;12.530;2023-04-03T10:40:57;2.17;;;1.30;;
13425;SDS011;6785;57.918;12.530;2023-04-03T10:43:29;2.27;;;1.07;;
13425;SDS011;6785;57.918;12.530;2023-04-03T10:46:04;1.00;;;0.90;;
13425;SDS011;6785;57.918;12.530;2023-04-03T10:48:40;1.10;;;0.87;;
13425;SDS011;6785;57.918;12.530;2023-04-03T10:51:22;1.20;;;1.00;;
13425;SDS011;6785;57.918;12.530;2023-04-03T10:53:56;2.27;;;1.30;;
13425;SDS011;6785;57.918;12.530;2023-04-03T10:56:30;1.50;;;1.10;;
13425;SDS011;6785;57.918;12.530;2023-04-03T10:59:02;1.57;;;1.20;;
13425;SDS011;6785;57.918;12.530;2023-04-03T11:01:44;3.47;;;1.20;;
13425;SDS011;6785;57.918;12.530;2023-04-03T11:04:13;3.43;;;1.50;;
13425;SDS011;6785;57.918;12.530;2023-04-03T11:06:43;1.40;;;1.00;;
13425;SDS011;6785;57.918;12.530;2023-04-03T11:09:16;1.17;;;0.80;;
13425;SDS011;6785;57.918;12.530;2023-04-03T11:11:48;2.20;;;1.10;;
13425;SDS011;6785;57.918;12.530;2023-04-03T11:14:18;1.87;;;1.10;;
13425;SDS011;6785;57.918;12.530;2023-04-03T11:16:53;4.13;;;1.30;;
13425;SDS011;6785;57.918;12.530;2023-04-03T11:19:28;1.97;;;1.07;;
13425;SDS011;6785;57.918;12.530;2023-04-03T11:22:02;2.77;;;0.93;;
13425;SDS011;6785;57.918;12.530;2023-04-03T11:24:36;1.17;;;1.03;;
13425;SDS011;6785;57.918;12.530;2023-04-03T11:27:05;1.50;;;1.00;;
13425;SDS011;6785;57.918;12.530;2023-04-03T11:29:38;2.10;;;1.10;;
13425;SDS011;6785;57.918;12.530;2023-04-03T11:32:16;2.40;;;1.30;;
13425;SDS011;6785;57.918;12.530;2023-04-03T11:34:57;2.20;;;1.00;;
13425;SDS011;6785;57.918;12.530;2023-04-03T11:37:28;2.53;;;1.10;;
13425;SDS011;6785;57.918;12.530;2023-04-03T11:40:01;3.53;;;0.93;;
13425;SDS011;6785;57.918;12.530;2023-04-03T11:42:34;1.73;;;0.77;;
13425;SDS011;6785;57.918;12.530;2023-04-03T11:45:17;2.47;;;0.87;;
13425;SDS011;6785;57.918;12.530;2023-04-03T11:47:58;2.07;;;1.20;;
13425;SDS011;6785;57.918;12.530;2023-04-03T11:53:27;1.57;;;0.80;;
13425;SDS011;6785;57.918;12.530;2023-04-03T11:55:57;3.03;;;1.00;;
13425;SDS011;6785;57.918;12.530;2023-04-03T11:58:42;2.47;;;1.10;;
13425;SDS011;6785;57.918;12.530;2023-04-03T12:01:44;1.50;;;1.10;;
13425;SDS011;6785;57.918;12.530;2023-04-03T12:04:14;0.90;;;0.90;;
13425;SDS011;6785;57.918;12.530;2023-04-03T12:06:50;3.37;;;1.20;;
13425;SDS011;6785;57.918;12.530;2023-04-03T12:09:23;3.60;;;0.97;;
13425;SDS011;6785;57.918;12.530;2023-04-03T12:11:52;2.80;;;1.20;;
13425;SDS011;6785;57.918;12.530;2023-04-03T12:14:22;4.93;;;0.90;;
13425;SDS011;6785;57.918;12.530;2023-04-03T12:16:50;3.30;;;1.10;;
13425;SDS011;6785;57.918;12.530;2023-04-03T12:19:33;1.60;;;0.97;;
13425;SDS011;6785;57.918;12.530;2023-04-03T12:22:06;1.13;;;0.80;;
13425;SDS011;6785;57.918;12.530;2023-04-03T12:24:38;4.13;;;1.00;;
13425;SDS011;6785;57.918;12.530;2023-04-03T12:27:17;3.90;;;1.20;;
13425;SDS011;6785;57.918;12.530;2023-04-03T12:29:56;3.00;;;1.20;;
13425;SDS011;6785;57.918;12.530;2023-04-03T12:32:36;1.80;;;1.17;;
13425;SDS011;6785;57.918;12.530;2023-04-03T12:35:26;3.30;;;1.07;;
13425;SDS011;6785;57.918;12.530;2023-04-03T12:38:01;2.60;;;1.20;;
13425;SDS011;6785;57.918;12.530;2023-04-03T12:40:58;2.43;;;1.00;;
13425;SDS011;6785;57.918;12.530;2023-04-03T12:43:49;1.60;;;1.10;;
13425;SDS011;6785;57.918;12.530;2023-04-03T12:46:26;2.07;;;1.37;;
13425;SDS011;6785;57.918;12.530;2023-04-03T12:48:59;3.47;;;1.00;;
13425;SDS011;6785;57.918;12.530;2023-04-03T12:51:28;1.70;;;1.17;;
13425;SDS011;6785;57.918;12.530;2023-04-03T12:54:02;2.83;;;0.97;;
13425;SDS011;6785;57.918;12.530;2023-04-03T12:56:38;4.83;;;1.20;;
13425;SDS011;6785;57.918;12.530;2023-04-03T12:59:15;1.30;;;1.20;;
13425;SDS011;6785;57.918;12.530;2023-04-03T13:01:43;1.70;;;1.13;;
13425;SDS011;6785;57.918;12.530;2023-04-03T13:04:10;3.30;;;1.20;;
13425;SDS011;6785;57.918;12.530;2023-04-03T13:06:40;2.63;;;1.13;;
13425;SDS011;6785;57.918;12.530;2023-04-03T13:09:18;4.00;;;1.03;;
13425;SDS011;6785;57.918;12.530;2023-04-03T13:11:47;2.40;;;1.10;;
13425;SDS011;6785;57.918;12.530;2023-04-03T13:14:18;1.30;;;1.20;;
13425;SDS011;6785;57.918;12.530;2023-04-03T13:16:53;3.33;;;1.17;;
13425;SDS011;6785;57.918;12.530;2023-04-03T13:19:22;3.73;;;0.80;;
13425;SDS011;6785;57.918;12.530;2023-04-03T13:21:53;6.10;;;1.60;;
13425;SDS011;6785;57.918;12.530;2023-04-03T13:24:25;2.00;;;1.10;;
13425;SDS011;6785;57.918;12.530;2023-04-03T13:26:52;2.60;;;0.97;;
13425;SDS011;6785;57.918;12.530;2023-04-03T13:29:21;1.87;;;0.93;;
13425;SDS011;6785;57.918;12.530;2023-04-03T13:31:52;3.50;;;1.10;;
13425;SDS011;6785;57.918;12.530;2023-04-03T13:34:19;1.00;;;0.87;;
13425;SDS011;6785;57.918;12.530;2023-04-03T13:36:56;1.93;;;1.03;;
13425;SDS011;6785;57.918;12.530;2023-04-03T13:39:25;1.83;;;1.03;;
13425;SDS011;6785;57.918;12.530;2023-04-03T13:41:54;3.03;;;1.10;;
13425;SDS011;6785;57.918;12.530;2023-04-03T13:44:27;1.50;;;0.93;;
13425;SDS011;6785;57.918;12.530;2023-04-03T13:46:59;2.30;;;1.20;;
13425;SDS011;6785;57.918;12.530;2023-04-03T13:49:40;1.47;;;0.90;;
13425;SDS011;6785;57.918;12.530;2023-04-03T13:52:22;0.83;;;0.83;;
13425;SDS011;6785;57.918;12.530;2023-04-03T13:54:52;5.23;;;1.10;;
13425;SDS011;6785;57.918;12.530;2023-04-03T13:57:22;3.03;;;1.10;;
13425;SDS011;6785;57.918;12.530;2023-04-03T13:59:49;3.17;;;1.20;;
13425;SDS011;6785;57.918;12.530;2023-04-03T14:02:17;2.83;;;1.13;;
13425;SDS011;6785;57.918;12.530;2023-04-03T14:04:48;1.43;;;1.07;;
13425;SDS011;6785;57.918;12.530;2023-04-03T14:07:22;2.40;;;1.10;;
13425;SDS011;6785;57.918;12.530;2023-04-03T14:09:49;1.97;;;1.10;;
13425;SDS011;6785;57.918;12.530;2023-04-03T14:12:17;5.10;;;1.20;;
13425;SDS011;6785;57.918;12.530;2023-04-03T14:14:50;1.73;;;1.37;;
13425;SDS011;6785;57.918;12.530;2023-04-03T14:17:18;1.00;;;0.83;;
13425;SDS011;6785;57.918;12.530;2023-04-03T14:19:46;4.77;;;1.13;;
13425;SDS011;6785;57.918;12.530;2023-04-03T14:22:15;1.10;;;0.93;;
13425;SDS011;6785;57.918;12.530;2023-04-03T14:24:45;3.03;;;0.90;;
13425;SDS011;6785;57.918;12.530;2023-04-03T14:27:15;1.57;;;1.00;;
13425;SDS011;6785;57.918;12.530;2023-04-03T14:29:44;2.63;;;1.23;;
13425;SDS011;6785;57.918;12.530;2023-04-03T14:32:12;1.47;;;0.90;;
13425;SDS011;6785;57.918;12.530;2023-04-03T14:34:41;1.40;;;1.00;;
13425;SDS011;6785;57.918;12.530;2023-04-03T14:37:10;1.77;;;1.03;;
13425;SDS011;6785;57.918;12.530;2023-04-03T14:39:37;2.30;;;0.90;;
13425;SDS011;6785;57.918;12.530;2023-04-03T14:42:05;2.27;;;1.03;;
13425;SDS011;6785;57.918;12.530;2023-04-03T14:44:32;2.20;;;1.20;;
13425;SDS011;6785;57.918;12.530;2023-04-03T14:46:59;1.97;;;1.07;;
13425;SDS011;6785;57.918;12.530;2023-04-03T14:49:28;1.40;;;1.00;;
13425;SDS011;6785;57.918;12.530;2023-04-03T14:51:56;1.13;;;0.90;;
13425;SDS011;6785;57.918;12.530;2023-04-03T14:54:23;2.80;;;1.10;;
13425;SDS011;6785;57.918;12.530;2023-04-03T14:56:52;5.40;;;1.17;;
13425;SDS011;6785;57.918;12.530;2023-04-03T14:59:21;2.07;;;0.90;;
13425;SDS011;6785;57.918;12.530;2023-04-03T15:01:48;2.90;;;1.10;;
13425;SDS011;6785;57.918;12.530;2023-04-03T15:04:16;2.73;;;1.23;;
13425;SDS011;6785;57.918;12.530;2023-04-03T15:06:45;5.30;;;1.07;;
13425;SDS011;6785;57.918;12.530;2023-04-03T15:09:18;6.37;;;1.30;;